createdAt,value
2024-05-09T00:00:46.190Z,81.82
2024-05-09T00:03:14.026Z,82.80
2024-05-09T00:05:42.427Z,83.39
2024-05-09T00:08:11.081Z,84.12
2024-05-09T00:10:40.225Z,84.85
2024-05-09T00:13:10.669Z,85.40
2024-05-09T00:15:39.196Z,86.08
2024-05-09T00:18:07.855Z,86.32
2024-05-09T00:20:39.624Z,86.74
2024-05-09T00:23:12.065Z,87.25
2024-05-09T00:25:43.068Z,87.79
2024-05-09T00:28:14.271Z,88.48
2024-05-09T00:30:41.826Z,89.04
2024-05-09T00:33:10.793Z,89.59
2024-05-09T00:35:39.443Z,90.25
2024-05-09T00:38:07.389Z,90.53
2024-05-09T00:40:40.265Z,90.70
2024-05-09T00:43:11.417Z,90.56
2024-05-09T00:45:39.554Z,90.50
2024-05-09T00:48:09.518Z,90.39
2024-05-09T00:50:41.105Z,91.00
2024-05-09T00:53:14.515Z,90.54
2024-05-09T00:55:42.886Z,91.05
2024-05-09T00:58:12.899Z,91.38
2024-05-09T01:00:41.640Z,91.25
2024-05-09T01:03:12.139Z,91.48
2024-05-09T01:05:42.425Z,91.44
2024-05-09T01:08:12.149Z,92.18
2024-05-09T01:10:43.765Z,92.50
2024-05-09T01:13:13.096Z,93.29
2024-05-09T01:15:40.709Z,93.95
2024-05-09T01:18:11.702Z,93.90
2024-05-09T01:20:43.320Z,94.69
2024-05-09T01:23:15.127Z,94.21
2024-05-09T01:25:46.192Z,94.92
2024-05-09T01:28:15.314Z,95.13
2024-05-09T01:30:42.989Z,95.32
2024-05-09T01:33:12.117Z,95.39
2024-05-09T01:35:42.202Z,96.13
2024-05-09T01:38:17.433Z,96.46
2024-05-09T01:40:46.154Z,96.11
2024-05-09T01:43:13.889Z,96.19
2024-05-09T01:45:41.812Z,96.97
2024-05-09T01:48:10.778Z,97.46
2024-05-09T01:50:42.004Z,97.67
2024-05-09T01:53:12.607Z,97.99
2024-05-09T01:55:40.908Z,97.87
2024-05-09T01:58:09.595Z,98.12
2024-05-09T02:00:41.352Z,97.58
2024-05-09T02:03:14.620Z,98.44
2024-05-09T02:05:46.896Z,98.41
2024-05-09T02:08:17.582Z,98.56
2024-05-09T02:10:47.159Z,98.15
2024-05-09T02:13:15.900Z,98.31
2024-05-09T02:15:43.832Z,99.00
2024-05-09T02:18:11.839Z,99.27
2024-05-09T02:20:41.340Z,98.92
2024-05-09T02:23:09.797Z,98.51
2024-05-09T02:25:37.616Z,98.95
2024-05-09T02:28:05.607Z,98.87
2024-05-09T02:30:39.458Z,98.10
2024-05-09T02:33:11.841Z,98.38
2024-05-09T02:35:41.653Z,98.34
2024-05-09T02:38:10.264Z,98.56
2024-05-09T02:40:39.590Z,98.51
2024-05-09T02:43:10.275Z,98.04
2024-05-09T02:45:40.232Z,97.07
2024-05-09T02:48:11.716Z,97.37
2024-05-09T02:50:44.539Z,96.95
2024-05-09T02:53:13.120Z,96.39
2024-05-09T02:55:41.906Z,96.91
2024-05-09T02:58:10.630Z,97.67
2024-05-09T03:00:41.618Z,97.88
2024-05-09T03:03:13.487Z,98.21
2024-05-09T03:05:44.259Z,98.71
2024-05-09T03:08:12.426Z,98.70
2024-05-09T03:10:40.407Z,99.44
2024-05-09T03:13:14.401Z,99.99
2024-05-09T03:15:43.932Z,99.47
2024-05-09T03:18:12.339Z,100.00
2024-05-09T03:20:40.572Z,100.00
2024-05-09T03:23:09.716Z,99.81
2024-05-09T03:25:39.023Z,100.00
2024-05-09T03:28:06.806Z,99.52
2024-05-09T03:30:40.803Z,100.00
2024-05-09T03:33:19.387Z,100.00
2024-05-09T03:35:49.272Z,100.00
2024-05-09T03:38:17.510Z,100.00
2024-05-09T03:40:46.801Z,100.00
2024-05-09T03:43:14.713Z,99.56
2024-05-09T03:45:43.277Z,98.54
2024-05-09T03:48:11.456Z,96.75
2024-05-09T03:50:39.665Z,95.20
2024-05-09T03:53:10.524Z,94.18
2024-05-09T03:55:38.302Z,92.40
2024-05-09T03:58:08.154Z,90.28
2024-05-09T04:00:39.305Z,86.59
2024-05-09T04:03:11.163Z,82.88
2024-05-09T04:05:42.487Z,79.13
2024-05-09T04:08:15.018Z,74.26
2024-05-09T04:10:42.970Z,71.86
2024-05-09T04:13:11.070Z,68.38
2024-05-09T04:15:39.393Z,65.88
2024-05-09T04:18:07.289Z,63.99
2024-05-09T04:20:39.121Z,61.71
2024-05-09T04:23:12.844Z,61.80
2024-05-09T04:25:44.355Z,59.97
2024-05-09T04:28:12.772Z,59.04
2024-05-09T04:30:41.648Z,57.59
2024-05-09T04:33:12.573Z,57.58
2024-05-09T04:35:43.284Z,57.81
2024-05-09T04:38:12.773Z,56.11
2024-05-09T04:40:40.811Z,55.76
2024-05-09T04:43:15.498Z,56.19
2024-05-09T04:45:43.725Z,56.85
2024-05-09T04:48:11.808Z,56.31
2024-05-09T04:50:40.030Z,55.86
2024-05-09T04:53:10.486Z,57.79
2024-05-09T04:55:39.951Z,55.98
2024-05-09T04:58:14.479Z,54.59
2024-05-09T05:00:43.508Z,53.33
2024-05-09T05:03:14.517Z,54.69
2024-05-09T05:05:45.339Z,54.44
2024-05-09T05:08:15.295Z,55.02
2024-05-09T05:10:43.890Z,56.63
2024-05-09T05:13:23.937Z,57.99
2024-05-09T05:15:56.752Z,57.52
2024-05-09T05:18:27.655Z,56.13
2024-05-09T05:20:56.434Z,55.48
2024-05-09T05:23:24.897Z,54.50
2024-05-09T05:25:55.182Z,53.23
2024-05-09T05:28:23.418Z,51.12
2024-05-09T05:30:51.130Z,49.52
2024-05-09T05:33:19.475Z,49.06
2024-05-09T05:35:47.670Z,48.53
2024-05-09T05:38:15.759Z,47.25
2024-05-09T05:40:43.387Z,46.67
2024-05-09T05:43:17.604Z,47.92
2024-05-09T05:45:45.734Z,48.23
2024-05-09T05:48:16.729Z,49.25
2024-05-09T05:50:45.498Z,49.27
2024-05-09T05:53:13.644Z,49.63
2024-05-09T05:55:41.913Z,50.25
2024-05-09T05:58:10.840Z,50.79
2024-05-09T06:00:40.522Z,50.79
2024-05-09T06:03:10.362Z,51.02
2024-05-09T06:05:44.303Z,49.52
2024-05-09T06:08:12.512Z,50.27
2024-05-09T06:10:41.485Z,50.97
2024-05-09T06:13:13.970Z,50.62
2024-05-09T06:15:42.557Z,49.49
2024-05-09T06:18:11.833Z,52.29
2024-05-09T06:20:43.220Z,47.59
2024-05-09T06:23:12.843Z,48.18
2024-05-09T06:25:40.842Z,47.46
2024-05-09T06:28:08.395Z,49.73
2024-05-09T06:30:42.342Z,48.53
2024-05-09T06:33:14.405Z,49.82
2024-05-09T06:35:44.843Z,46.78
2024-05-09T06:38:12.708Z,47.37
2024-05-09T06:40:42.926Z,47.61
2024-05-09T06:43:17.476Z,48.19
2024-05-09T06:45:48.430Z,47.45
2024-05-09T06:48:21.062Z,47.74
2024-05-09T06:50:49.880Z,47.87
2024-05-09T06:53:20.557Z,47.98
2024-05-09T06:55:48.325Z,49.30
2024-05-09T06:58:16.220Z,48.82
2024-05-09T07:00:43.963Z,48.99
2024-05-09T07:03:17.899Z,49.61
2024-05-09T07:05:48.316Z,49.81
2024-05-09T07:08:17.553Z,48.16
2024-05-09T07:10:45.265Z,48.98
2024-05-09T07:13:15.133Z,48.49
2024-05-09T07:15:43.498Z,50.12
2024-05-09T07:18:17.143Z,50.94
2024-05-09T07:20:47.292Z,50.15
2024-05-09T07:23:16.075Z,49.64
2024-05-09T07:25:43.869Z,51.61
2024-05-09T07:28:14.870Z,50.31
2024-05-09T07:30:43.081Z,50.78
2024-05-09T07:33:20.848Z,50.85
2024-05-09T07:35:50.084Z,51.92
2024-05-09T07:38:17.801Z,50.49
2024-05-09T07:40:45.621Z,49.33
2024-05-09T07:43:14.670Z,48.86
2024-05-09T07:45:51.411Z,49.58
2024-05-09T07:52:38.064Z,49.49
2024-05-09T07:53:49.572Z,47.21
2024-05-09T07:56:22.465Z,50.26
2024-05-09T07:58:54.111Z,47.47
2024-05-09T08:01:22.621Z,45.37
2024-05-09T08:03:50.771Z,48.63
2024-05-09T08:06:18.657Z,46.95
2024-05-09T08:08:49.806Z,44.42
2024-05-09T08:11:17.526Z,43.83
2024-05-09T08:13:45.073Z,47.48
2024-05-09T08:16:14.286Z,48.59
2024-05-09T08:18:42.488Z,47.46
2024-05-09T08:21:10.141Z,47.04
2024-05-09T08:23:37.907Z,46.13
2024-05-09T08:26:05.828Z,43.76
2024-05-09T08:28:33.367Z,46.94
2024-05-09T08:31:04.162Z,46.71
2024-05-09T08:33:33.884Z,44.54
2024-05-09T08:36:01.564Z,45.83
2024-05-09T08:38:29.163Z,47.39
2024-05-09T08:40:56.845Z,45.83
2024-05-09T08:43:26.870Z,45.55
2024-05-09T08:45:54.641Z,46.01
2024-05-09T08:48:24.384Z,46.42
2024-05-09T08:50:53.425Z,46.09
2024-05-09T08:53:21.535Z,47.78
2024-05-09T08:55:51.281Z,46.07
2024-05-09T08:58:21.942Z,48.02
2024-05-09T09:00:49.987Z,46.26
2024-05-09T09:03:19.794Z,49.50
2024-05-09T09:06:09.160Z,46.52
2024-05-09T09:08:39.275Z,43.14
2024-05-09T09:11:07.375Z,43.19
2024-05-09T09:13:34.895Z,40.69
2024-05-09T09:16:03.903Z,42.35
2024-05-09T09:18:33.211Z,45.09
2024-05-09T09:21:03.101Z,44.64
2024-05-09T09:23:31.051Z,46.13
2024-05-09T09:26:02.030Z,45.74
2024-05-09T09:28:30.207Z,45.22
2024-05-09T09:31:04.643Z,43.67
2024-05-09T09:34:19.137Z,44.89
2024-05-09T09:36:48.033Z,45.01
2024-05-09T09:39:18.659Z,45.79
2024-05-09T09:41:47.964Z,47.66
2024-05-09T09:44:17.252Z,50.43
2024-05-09T09:46:45.644Z,49.14
2024-05-09T09:49:13.687Z,51.19
2024-05-09T09:51:43.894Z,51.31
2024-05-09T09:54:13.282Z,52.06
2024-05-09T09:56:43.473Z,48.28
2024-05-09T09:59:14.218Z,48.54
2024-05-09T10:01:46.094Z,45.58
2024-05-09T10:04:19.297Z,45.47
2024-05-09T10:06:53.014Z,46.92
2024-05-09T10:09:21.949Z,46.45
2024-05-09T10:11:54.457Z,47.89
2024-05-09T10:14:25.742Z,47.81
2024-05-09T10:17:03.808Z,49.48
2024-05-09T10:19:31.540Z,47.59
2024-05-09T10:22:03.414Z,49.80
2024-05-09T10:24:50.905Z,47.72
2024-05-09T10:27:29.007Z,50.25
2024-05-09T10:30:09.095Z,48.90
2024-05-09T10:32:42.451Z,47.26
2024-05-09T10:35:13.265Z,49.21
2024-05-09T10:37:41.191Z,47.10
2024-05-09T10:40:14.256Z,48.51
2024-05-09T10:42:48.570Z,46.45
2024-05-09T10:45:16.904Z,46.75
2024-05-09T10:47:45.415Z,44.54
2024-05-09T10:50:22.219Z,46.85
2024-05-09T10:52:55.882Z,45.85
2024-05-09T10:55:23.572Z,43.03
2024-05-09T10:57:51.309Z,42.97
2024-05-09T11:00:27.471Z,41.81
2024-05-09T11:03:01.118Z,41.51
2024-05-09T11:05:29.621Z,43.88
2024-05-09T11:07:57.504Z,44.18
2024-05-09T11:10:33.375Z,45.36
2024-05-09T11:13:02.090Z,46.89
2024-05-09T11:15:42.195Z,47.09
2024-05-09T11:18:25.872Z,48.49
2024-05-09T11:20:56.446Z,51.08
2024-05-09T11:23:30.781Z,51.44
2024-05-09T11:25:59.161Z,49.65
2024-05-09T11:28:29.154Z,45.10
2024-05-09T11:31:08.043Z,43.77
2024-05-09T11:33:40.257Z,43.52
2024-05-09T11:36:08.967Z,43.50
2024-05-09T11:38:36.638Z,42.82
2024-05-09T11:41:05.272Z,44.02
2024-05-09T11:43:33.607Z,45.39
2024-05-09T11:46:03.658Z,44.14
2024-05-09T11:48:32.478Z,45.37
2024-05-09T11:51:00.423Z,45.69
2024-05-09T11:53:28.082Z,44.78
2024-05-09T11:55:55.746Z,44.04
2024-05-09T11:58:23.795Z,42.78
2024-05-09T12:00:51.767Z,43.38
2024-05-09T12:03:19.619Z,43.71
2024-05-09T12:05:47.496Z,42.39
2024-05-09T12:08:15.365Z,42.47
2024-05-09T12:10:43.232Z,41.57
2024-05-09T12:13:10.997Z,42.01
2024-05-09T12:15:39.262Z,42.00
2024-05-09T12:18:08.130Z,41.55
2024-05-09T12:20:39.112Z,41.73
2024-05-09T12:23:10.027Z,42.08
2024-05-09T12:25:39.972Z,39.28
2024-05-09T12:28:08.478Z,38.49
2024-05-09T12:30:40.158Z,38.36
2024-05-09T12:33:12.482Z,39.77
2024-05-09T12:35:43.223Z,40.95
2024-05-09T12:38:13.954Z,43.86
2024-05-09T12:40:42.738Z,43.52
2024-05-09T12:43:11.473Z,41.77
2024-05-09T12:45:40.388Z,41.06
2024-05-09T12:48:12.414Z,43.21
2024-05-09T12:50:41.533Z,43.74
2024-05-09T12:53:09.525Z,41.42
2024-05-09T12:55:44.932Z,41.46
2024-05-09T12:58:24.578Z,42.45
2024-05-09T13:00:52.899Z,42.61
2024-05-09T13:03:21.577Z,41.45
2024-05-09T13:05:50.649Z,42.46
2024-05-09T13:08:18.529Z,41.58
2024-05-09T13:10:46.708Z,41.06
2024-05-09T13:13:14.635Z,43.55
2024-05-09T13:15:42.748Z,44.67
2024-05-09T13:18:10.540Z,43.13
2024-05-09T13:20:38.263Z,44.28
2024-05-09T13:23:08.066Z,44.69
2024-05-09T13:25:37.825Z,45.37
2024-05-09T13:28:07.001Z,44.96
2024-05-09T13:30:39.954Z,44.46
2024-05-09T13:33:14.168Z,42.18
2024-05-09T13:35:47.256Z,42.74
2024-05-09T13:38:19.168Z,42.71
2024-05-09T13:40:47.782Z,42.51
2024-05-09T13:43:16.172Z,41.46
2024-05-09T13:45:44.181Z,42.00
2024-05-09T13:48:12.178Z,42.70
2024-05-09T13:50:40.257Z,41.62
2024-05-09T13:53:08.917Z,42.73
2024-05-09T13:55:40.572Z,42.46
2024-05-09T13:58:09.569Z,42.82
2024-05-09T14:00:46.370Z,42.47
2024-05-09T14:03:19.285Z,43.36
2024-05-09T14:05:50.199Z,43.43
2024-05-09T14:08:20.233Z,43.87
2024-05-09T14:10:49.391Z,43.95
2024-05-09T14:13:17.472Z,42.56
2024-05-09T14:15:46.427Z,43.30
2024-05-09T14:18:14.744Z,44.04
2024-05-09T14:20:43.355Z,44.37
2024-05-09T14:23:11.363Z,43.61
2024-05-09T14:25:42.490Z,42.92
2024-05-09T14:28:12.953Z,42.53
2024-05-09T14:30:42.219Z,41.46
2024-05-09T14:33:11.687Z,42.70
2024-05-09T14:35:39.607Z,43.92
2024-05-09T14:38:08.859Z,43.83
2024-05-09T14:40:42.263Z,43.36
2024-05-09T14:43:13.080Z,42.44
2024-05-09T14:45:41.848Z,42.84
2024-05-09T14:48:10.564Z,43.11
2024-05-09T14:50:40.194Z,43.36
2024-05-09T14:53:10.522Z,41.96
2024-05-09T14:55:40.920Z,42.44
2024-05-09T14:58:10.913Z,43.29
2024-05-09T15:00:46.801Z,42.99
2024-05-09T15:03:22.161Z,42.48
2024-05-09T15:05:51.207Z,43.23
2024-05-09T15:08:19.995Z,43.33
2024-05-09T15:10:50.289Z,45.03
2024-05-09T15:13:19.839Z,43.72
2024-05-09T15:15:47.791Z,45.73
2024-05-09T15:18:15.848Z,44.92
2024-05-09T15:20:45.084Z,45.43
2024-05-09T15:23:13.628Z,44.89
2024-05-09T15:25:41.388Z,45.60
2024-05-09T15:28:09.444Z,45.44
2024-05-09T15:30:37.768Z,44.50
2024-05-09T15:33:07.220Z,44.57
2024-05-09T15:35:36.143Z,44.97
2024-05-09T15:38:04.590Z,44.99
2024-05-09T15:40:39.102Z,46.11
2024-05-09T15:43:10.558Z,45.70
2024-05-09T15:45:41.030Z,45.51
2024-05-09T15:48:10.411Z,45.38
2024-05-09T15:50:41.400Z,44.67
2024-05-09T15:53:12.244Z,43.88
2024-05-09T15:55:42.263Z,44.67
2024-05-09T15:58:12.386Z,44.20
2024-05-09T16:00:43.463Z,44.55
2024-05-09T16:03:14.411Z,44.96
2024-05-09T16:05:45.541Z,43.51
2024-05-09T16:08:14.961Z,44.29
2024-05-09T16:10:46.009Z,44.88
2024-05-09T16:13:15.599Z,44.75
2024-05-09T16:15:44.360Z,45.44
2024-05-09T16:18:13.034Z,47.51
2024-05-09T16:20:42.519Z,47.06
2024-05-09T16:23:12.965Z,46.09
2024-05-09T16:25:46.387Z,46.47
2024-05-09T16:28:14.245Z,46.40
2024-05-09T16:30:42.070Z,45.83
2024-05-09T16:33:11.169Z,46.60
2024-05-09T16:35:39.607Z,46.10
2024-05-09T16:38:07.842Z,47.31
2024-05-09T16:40:39.896Z,47.60
2024-05-09T16:43:10.529Z,46.62
2024-05-09T16:45:40.648Z,47.19
2024-05-09T16:48:09.136Z,45.84
2024-05-09T16:50:37.593Z,45.84
2024-05-09T16:53:06.768Z,46.50
2024-05-09T16:55:35.853Z,46.88
2024-05-09T16:58:05.098Z,46.40
2024-05-09T17:00:40.378Z,46.45
2024-05-09T17:03:14.295Z,46.06
2024-05-09T17:05:44.081Z,46.79
2024-05-09T17:08:13.016Z,47.29
2024-05-09T17:10:40.926Z,46.32
2024-05-09T17:13:08.760Z,47.43
2024-05-09T17:15:37.709Z,47.32
2024-05-09T17:18:07.527Z,47.01
2024-05-09T17:20:37.477Z,47.52
2024-05-09T17:23:15.409Z,48.69
2024-05-09T17:25:43.531Z,48.05
2024-05-09T17:28:11.798Z,47.64
2024-05-09T17:30:42.151Z,47.97
2024-05-09T17:33:11.983Z,48.25
2024-05-09T17:35:40.910Z,48.77
2024-05-09T17:38:08.997Z,48.91
2024-05-09T17:40:38.378Z,49.34
2024-05-09T17:43:09.181Z,50.15
2024-05-09T17:45:40.513Z,49.81
2024-05-09T17:48:10.526Z,50.48
2024-05-09T17:50:39.574Z,51.02
2024-05-09T17:53:09.368Z,51.00
2024-05-09T17:55:37.418Z,51.46
2024-05-09T17:58:06.070Z,51.67
2024-05-09T18:00:39.195Z,51.77
2024-05-09T18:03:14.002Z,52.21
2024-05-09T18:05:43.700Z,52.32
2024-05-09T18:08:12.976Z,52.75
2024-05-09T18:10:41.631Z,52.82
2024-05-09T18:13:11.257Z,53.30
2024-05-09T18:15:39.977Z,53.21
2024-05-09T18:18:09.193Z,53.39
2024-05-09T18:20:42.997Z,53.59
2024-05-09T18:23:16.168Z,54.25
2024-05-09T18:25:45.932Z,54.20
2024-05-09T18:28:13.882Z,54.58
2024-05-09T18:30:41.856Z,54.67
2024-05-09T18:33:11.467Z,54.98
2024-05-09T18:35:42.746Z,55.01
2024-05-09T18:38:10.898Z,55.57
2024-05-09T18:40:40.149Z,56.03
2024-05-09T18:43:09.516Z,56.23
2024-05-09T18:45:38.584Z,56.22
2024-05-09T18:48:08.526Z,56.43
2024-05-09T18:50:39.566Z,56.39
2024-05-09T18:53:11.088Z,56.38
2024-05-09T18:55:39.702Z,56.75
2024-05-09T18:58:07.366Z,56.92
2024-05-09T19:00:38.472Z,57.14
2024-05-09T19:03:11.738Z,57.25
2024-05-09T19:05:43.701Z,57.24
2024-05-09T19:08:12.945Z,57.50
2024-05-09T19:10:41.550Z,57.85
2024-05-09T19:13:12.445Z,57.59
2024-05-09T19:15:42.895Z,57.97
2024-05-09T19:18:13.653Z,57.99
2024-05-09T19:20:42.274Z,58.08
2024-05-09T19:23:11.822Z,58.30
2024-05-09T19:25:40.031Z,58.21
2024-05-09T19:28:07.767Z,58.33
2024-05-09T19:30:40.278Z,58.41
2024-05-09T19:33:12.968Z,58.66
2024-05-09T19:35:42.361Z,58.81
2024-05-09T19:38:10.771Z,58.75
2024-05-09T19:40:38.548Z,58.90
2024-05-09T19:43:06.972Z,59.06
2024-05-09T19:45:35.783Z,59.27
2024-05-09T19:48:05.508Z,59.36
2024-05-09T19:50:41.317Z,59.60
2024-05-09T19:53:12.983Z,59.74
2024-05-09T19:55:41.617Z,59.94
2024-05-09T19:58:10.474Z,60.49
2024-05-09T20:00:41.408Z,60.67
2024-05-09T20:03:14.967Z,60.74
2024-05-09T20:05:47.069Z,61.30
2024-05-09T20:08:15.364Z,61.68
2024-05-09T20:10:43.209Z,61.81
2024-05-09T20:13:11.101Z,62.20
2024-05-09T20:15:40.192Z,62.70
2024-05-09T20:18:08.201Z,62.85
2024-05-09T20:20:40.064Z,63.38
2024-05-09T20:23:14.384Z,63.56
2024-05-09T20:25:42.895Z,64.09
2024-05-09T20:28:10.857Z,64.25
2024-05-09T20:30:39.072Z,64.52
2024-05-09T20:33:08.069Z,64.80
2024-05-09T20:35:37.031Z,64.86
2024-05-09T20:38:05.448Z,64.66
2024-05-09T20:40:37.154Z,64.98
2024-05-09T20:43:08.600Z,65.49
2024-05-09T20:45:36.638Z,65.87
2024-05-09T20:48:04.954Z,65.68
2024-05-09T20:50:38.586Z,66.07
2024-05-09T20:53:11.062Z,66.22
2024-05-09T20:55:39.897Z,66.40
2024-05-09T20:58:08.280Z,66.30
2024-05-09T21:00:40.362Z,66.54
2024-05-09T21:03:12.719Z,66.82
2024-05-09T21:05:41.245Z,66.99
2024-05-09T21:08:09.367Z,67.15
2024-05-09T21:10:37.651Z,67.51
2024-05-09T21:13:06.744Z,67.94
2024-05-09T21:15:35.836Z,67.86
2024-05-09T21:18:04.574Z,68.29
2024-05-09T21:20:34.997Z,68.62
2024-05-09T21:23:03.822Z,68.67
2024-05-09T21:25:32.133Z,68.78
2024-05-09T21:28:00.828Z,68.85
2024-05-09T21:30:38.427Z,68.94
2024-05-09T21:33:11.762Z,68.99
2024-05-09T21:35:41.672Z,69.13
2024-05-09T21:38:09.359Z,69.25
2024-05-09T21:40:38.204Z,69.63
2024-05-09T21:43:07.949Z,69.92
2024-05-09T21:45:36.605Z,70.07
2024-05-09T21:48:05.809Z,70.48
2024-05-09T21:50:40.032Z,70.92
2024-05-09T21:53:11.764Z,71.04
2024-05-09T21:55:39.901Z,71.23
2024-05-09T21:58:07.849Z,71.23
2024-05-09T22:00:39.319Z,71.39
2024-05-09T22:03:08.577Z,71.27
2024-05-09T22:05:37.820Z,71.33
2024-05-09T22:08:05.959Z,71.64
2024-05-09T22:10:35.937Z,71.68
2024-05-09T22:13:06.386Z,71.93
2024-05-09T22:15:39.884Z,72.19
2024-05-09T22:18:09.767Z,72.50
2024-05-09T22:20:45.122Z,72.47
2024-05-09T22:23:15.161Z,72.76
2024-05-09T22:25:42.741Z,73.00
2024-05-09T22:28:10.572Z,72.99
2024-05-09T22:30:39.961Z,73.12
2024-05-09T22:33:10.120Z,73.10
2024-05-09T22:35:40.734Z,73.48
2024-05-09T22:38:08.851Z,73.38
2024-05-09T22:40:46.377Z,73.96
2024-05-09T22:43:22.207Z,74.14
2024-05-09T22:45:52.295Z,74.12
2024-05-09T22:48:20.589Z,74.52
2024-05-09T22:50:48.749Z,74.88
2024-05-09T22:53:16.574Z,75.55
2024-05-09T22:55:44.282Z,75.56
2024-05-09T22:58:11.822Z,75.88
2024-05-09T23:00:39.617Z,76.18
2024-05-09T23:03:07.220Z,76.67
2024-05-09T23:05:34.929Z,76.78
2024-05-09T23:08:03.044Z,77.04
2024-05-09T23:10:36.131Z,77.16
2024-05-09T23:13:08.822Z,77.21
2024-05-09T23:15:40.448Z,77.03
2024-05-09T23:18:08.598Z,76.90
2024-05-09T23:20:39.135Z,77.41
2024-05-09T23:23:08.978Z,77.53
2024-05-09T23:25:37.755Z,77.48
2024-05-09T23:28:06.247Z,77.91
2024-05-09T23:30:38.511Z,78.42
2024-05-09T23:33:12.404Z,79.21
2024-05-09T23:35:44.494Z,79.01
2024-05-09T23:38:13.004Z,79.09
2024-05-09T23:40:42.322Z,78.92
2024-05-09T23:43:12.474Z,79.32
2024-05-09T23:45:41.447Z,79.27
2024-05-09T23:48:10.150Z,79.02
2024-05-09T23:50:39.585Z,79.32
2024-05-09T23:53:09.524Z,79.06
2024-05-09T23:55:38.458Z,78.93
2024-05-09T23:58:09.447Z,79.61
